Time;durP1;ratioP1;P1;durP2;ratioP2;P2;SDS_P1;SDS_P2;PMS_P1;PMS_P2;Temp;Humidity;BMP_temperature;BMP_pressure;BME280_temperature;BME280_humidity;BME280_pressure;Samples;Min_cycle;Max_cycle;Signal;HPM_P1;HPM_P2
2023/05/26 00:02:19;;;;;;;10.00;2.50;;;;;;;13.53;54.35;102529.88;4893646;28;96865;-49
2023/05/26 00:04:44;;;;;;;10.07;2.60;;;;;;;13.51;54.28;102530.34;4894015;28;99274;-50
2023/05/26 00:07:10;;;;;;;12.90;3.00;;;;;;;13.49;54.34;102532.81;4898795;28;97334;-50
2023/05/26 00:09:35;;;;;;;10.30;3.00;;;;;;;13.45;54.27;102534.22;4893560;28;96930;-47
2023/05/26 00:12:01;;;;;;;12.40;3.70;;;;;;;13.40;54.32;102532.84;4893745;28;97142;-50
2023/05/26 00:14:26;;;;;;;8.90;2.63;;;;;;;13.39;54.33;102536.81;4892229;28;98136;-50
2023/05/26 00:16:53;;;;;;;11.50;2.70;;;;;;;13.36;54.32;102537.00;4893151;28;97505;-50
2023/05/26 00:19:19;;;;;;;8.80;2.80;;;;;;;13.32;54.42;102539.91;4892047;28;97213;-50
2023/05/26 00:21:45;;;;;;;9.33;2.50;;;;;;;13.28;54.47;102536.56;4895110;28;97566;-49
2023/05/26 00:24:10;;;;;;;10.70;2.87;;;;;;;13.22;54.55;102543.94;4894812;28;97377;-48
2023/05/26 00:26:36;;;;;;;11.30;2.53;;;;;;;13.19;54.58;102546.88;4894884;28;96900;-49
2023/05/26 00:29:02;;;;;;;9.73;2.37;;;;;;;13.11;54.62;102545.66;4892040;28;97112;-50
2023/05/26 00:31:29;;;;;;;8.80;2.30;;;;;;;13.10;54.85;102555.19;4894256;28;97107;-50
2023/05/26 00:33:54;;;;;;;10.70;2.10;;;;;;;13.07;54.73;102547.81;4891734;28;97481;-47
2023/05/26 00:36:20;;;;;;;11.20;2.77;;;;;;;13.01;54.66;102547.66;4895932;28;109376;-50
2023/05/26 00:38:45;;;;;;;14.60;3.23;;;;;;;12.98;54.64;102550.56;4893173;28;96928;-48
2023/05/26 00:41:11;;;;;;;13.63;3.50;;;;;;;12.94;54.94;102550.72;4894204;28;97372;-49
2023/05/26 00:43:36;;;;;;;14.97;2.63;;;;;;;12.89;54.86;102547.81;4894682;28;105136;-50
2023/05/26 00:46:01;;;;;;;14.33;2.67;;;;;;;12.85;54.97;102536.91;4890769;28;107487;-49
2023/05/26 00:48:27;;;;;;;5.60;2.47;;;;;;;12.83;55.08;102542.13;4893650;28;96892;-49
2023/05/26 00:50:52;;;;;;;6.73;2.20;;;;;;;12.82;54.95;102541.38;4892730;28;97305;-50
2023/05/26 00:53:18;;;;;;;9.93;2.30;;;;;;;12.80;55.08;102543.03;4893040;28;97554;-50
2023/05/26 00:55:46;;;;;;;7.97;2.33;;;;;;;12.76;54.96;102547.97;4891247;28;97172;-50
2023/05/26 00:58:11;;;;;;;13.73;2.70;;;;;;;12.70;54.88;102544.28;4894679;28;97053;-50
2023/05/26 01:00:37;;;;;;;11.10;3.07;;;;;;;12.65;55.14;102547.66;4896380;28;96997;-49
2023/05/26 01:03:04;;;;;;;7.83;2.90;;;;;;;12.62;55.13;102548.59;4891807;28;97578;-50
2023/05/26 01:05:30;;;;;;;9.10;2.40;;;;;;;12.59;55.14;102547.53;4893271;28;97613;-50
2023/05/26 01:07:56;;;;;;;7.00;2.20;;;;;;;12.54;55.06;102545.38;4892391;28;97309;-50
2023/05/26 01:10:21;;;;;;;13.30;2.77;;;;;;;12.52;55.04;102547.03;4894247;28;97370;-50
2023/05/26 01:12:56;;;;;;;10.60;2.17;;;;;;;12.50;55.33;102546.75;4892596;28;98247;-47
2023/05/26 01:15:30;;;;;;;8.27;3.00;;;;;;;12.45;55.20;102541.84;4895796;28;97328;-50
2023/05/26 01:18:16;;;;;;;7.80;2.70;;;;;;;12.43;55.99;102544.28;4895053;28;97269;-49
2023/05/26 01:20:45;;;;;;;15.93;3.40;;;;;;;12.41;55.24;102550.25;4896830;28;97059;-50
2023/05/26 01:23:55;;;;;;;5.93;2.50;;;;;;;12.35;55.55;102552.09;4893243;28;99020;-50
2023/05/26 01:26:58;;;;;;;8.97;2.33;;;;;;;12.24;55.84;102543.50;4896148;28;96952;-50
2023/05/26 01:29:27;;;;;;;6.73;2.20;;;;;;;12.22;55.43;102548.72;4896920;28;98065;-48
2023/05/26 01:31:53;;;;;;;7.30;2.30;;;;;;;12.21;55.40;102549.91;4894642;28;97043;-50
2023/05/26 01:34:18;;;;;;;7.17;2.30;;;;;;;12.18;55.48;102544.56;4896416;28;101969;-50
2023/05/26 01:36:43;;;;;;;14.40;2.60;;;;;;;12.16;55.43;102547.78;4897462;28;97163;-49
2023/05/26 01:39:10;;;;;;;13.57;2.37;;;;;;;12.14;55.21;102550.22;4895675;28;97414;-50
2023/05/26 01:41:56;;;;;;;9.47;2.60;;;;;;;12.07;55.94;102547.00;4894481;28;96839;-49
2023/05/26 01:44:31;;;;;;;12.37;2.77;;;;;;;12.01;55.70;102555.84;4896411;28;97542;-50
2023/05/26 01:46:57;;;;;;;7.87;2.40;;;;;;;11.97;55.55;102580.06;4895555;28;97712;-48
2023/05/26 01:49:28;;;;;;;7.83;2.00;;;;;;;11.97;55.94;102552.47;4897418;28;97439;-49
2023/05/26 01:52:00;;;;;;;4.67;1.97;;;;;;;11.96;55.78;102556.47;4894140;28;97250;-50
2023/05/26 01:54:27;;;;;;;7.77;2.60;;;;;;;11.93;55.67;102579.44;4893838;28;98012;-50
2023/05/26 01:56:54;;;;;;;7.90;2.37;;;;;;;11.96;55.60;102562.00;4893149;28;100081;-48
2023/05/26 01:59:21;;;;;;;8.57;2.30;;;;;;;11.94;55.69;102555.38;4894641;28;97260;-50
2023/05/26 02:01:47;;;;;;;10.20;2.30;;;;;;;11.89;55.85;102567.78;4897159;28;97073;-50
2023/05/26 02:04:12;;;;;;;6.23;2.40;;;;;;;11.88;55.81;102559.97;4892951;28;97200;-50
2023/05/26 02:06:38;;;;;;;10.57;2.70;;;;;;;11.84;55.62;102557.34;4895079;28;97350;-51
2023/05/26 02:09:05;;;;;;;7.27;2.97;;;;;;;11.85;55.65;102560.88;4896646;28;97074;-50
2023/05/26 02:11:31;;;;;;;8.97;2.37;;;;;;;11.83;55.82;102561.34;4892139;28;97279;-50
2023/05/26 02:13:58;;;;;;;7.37;2.20;;;;;;;11.81;55.76;102571.28;4895864;28;96880;-49
2023/05/26 02:16:23;;;;;;;9.50;2.87;;;;;;;11.78;55.72;102570.19;4894627;28;97699;-50
2023/05/26 02:18:49;;;;;;;9.07;3.00;;;;;;;11.74;55.83;102571.56;4898296;28;96746;-49
2023/05/26 02:21:15;;;;;;;8.13;2.70;;;;;;;11.71;55.82;102570.47;4895391;28;97533;-50
2023/05/26 02:23:42;;;;;;;10.53;2.60;;;;;;;11.66;55.77;102571.03;4895014;28;96848;-49
2023/05/26 02:26:07;;;;;;;9.00;2.93;;;;;;;11.59;55.73;102578.81;4891017;28;97365;-48
2023/05/26 02:28:33;;;;;;;11.97;2.70;;;;;;;11.52;55.82;102574.34;4893577;28;97104;-49
2023/05/26 02:30:58;;;;;;;6.20;2.43;;;;;;;11.50;55.92;102584.28;4892562;28;97064;-50
2023/05/26 02:33:23;;;;;;;8.07;2.17;;;;;;;11.48;56.10;102576.47;4896147;28;101785;-50
2023/05/26 02:35:49;;;;;;;11.73;2.50;;;;;;;11.45;55.83;102582.88;4892728;28;104351;-48
2023/05/26 02:38:14;;;;;;;5.83;2.67;;;;;;;11.39;55.60;102579.16;4894704;28;97143;-48
2023/05/26 02:40:40;;;;;;;11.97;2.73;;;;;;;11.30;55.58;102579.88;4896787;28;97533;-49
2023/05/26 02:43:05;;;;;;;8.67;2.20;;;;;;;11.24;55.73;102583.66;4895320;28;97310;-49
2023/05/26 02:45:30;;;;;;;10.13;2.80;;;;;;;11.21;55.99;102587.31;4893198;28;96922;-48
2023/05/26 02:47:56;;;;;;;6.50;2.10;;;;;;;11.18;56.01;102591.72;4891916;28;103560;-50
2023/05/26 02:50:22;;;;;;;12.13;2.67;;;;;;;11.15;55.98;102595.41;4894024;28;97599;-49
2023/05/26 02:52:47;;;;;;;6.57;2.33;;;;;;;11.13;56.07;102597.84;4892692;28;97367;-50
2023/05/26 02:55:13;;;;;;;7.83;2.40;;;;;;;11.12;56.13;102601.03;4893386;28;108605;-49
2023/05/26 02:57:38;;;;;;;6.40;2.20;;;;;;;11.09;56.30;102599.94;4895971;28;96816;-49
2023/05/26 03:00:10;;;;;;;7.27;2.23;;;;;;;11.08;56.28;102597.63;4894472;28;96991;-47
2023/05/26 03:02:36;;;;;;;5.70;1.90;;;;;;;11.06;56.22;102611.84;4897346;28;97242;-49
2023/05/26 03:05:02;;;;;;;6.93;2.80;;;;;;;11.03;56.25;102603.72;4894351;28;98418;-50
2023/05/26 03:07:27;;;;;;;6.63;2.57;;;;;;;11.02;56.28;102596.66;4894651;28;96986;-50
2023/05/26 03:09:53;;;;;;;8.03;2.70;;;;;;;11.02;56.23;102610.44;4891882;28;97358;-49
2023/05/26 03:12:18;;;;;;;6.90;2.10;;;;;;;10.96;56.25;102612.25;4894606;28;108690;-49
2023/05/26 03:14:43;;;;;;;10.13;2.63;;;;;;;10.91;56.27;102599.03;4893198;28;98302;-50
2023/05/26 03:17:09;;;;;;;13.83;2.73;;;;;;;10.92;56.40;102609.59;4894101;28;97190;-50
2023/05/26 03:19:34;;;;;;;9.13;2.90;;;;;;;10.94;56.37;102609.16;4893105;28;97120;-49
2023/05/26 03:22:01;;;;;;;6.80;2.30;;;;;;;10.93;56.42;102613.13;4893348;28;97264;-50
2023/05/26 03:24:26;;;;;;;6.43;2.30;;;;;;;10.93;56.42;102616.66;4895768;28;97267;-49
2023/05/26 03:26:52;;;;;;;8.13;3.07;;;;;;;10.94;56.40;102614.66;4893131;28;97129;-50
2023/05/26 03:29:17;;;;;;;6.10;2.10;;;;;;;10.89;56.39;102616.00;4896075;28;96753;-50
2023/05/26 03:31:43;;;;;;;11.53;2.60;;;;;;;10.86;56.48;102608.63;4892941;28;96686;-50
2023/05/26 03:34:08;;;;;;;7.50;2.80;;;;;;;10.87;56.52;102625.94;4892767;28;97008;-50
2023/05/26 03:36:36;;;;;;;7.93;2.00;;;;;;;10.89;56.51;102621.50;4891649;28;97025;-49
2023/05/26 03:39:03;;;;;;;12.40;2.60;;;;;;;10.91;56.43;102640.34;4892675;28;96813;-49
2023/05/26 03:41:29;;;;;;;11.63;2.67;;;;;;;10.89;56.52;102635.28;4892703;28;98649;-50
2023/05/26 03:43:54;;;;;;;10.00;2.20;;;;;;;10.88;56.30;102630.19;4893228;28;97097;-50
2023/05/26 03:46:20;;;;;;;7.13;2.23;;;;;;;10.89;56.48;102640.03;4892541;28;97116;-48
2023/05/26 03:48:45;;;;;;;6.80;2.50;;;;;;;10.86;56.56;102636.16;4896684;28;97405;-49
2023/05/26 03:51:10;;;;;;;9.10;2.90;;;;;;;10.85;56.45;102640.16;4893116;28;97590;-49
2023/05/26 03:53:36;;;;;;;9.17;2.67;;;;;;;10.82;56.53;102641.03;4892619;28;97070;-49
2023/05/26 03:56:03;;;;;;;6.47;2.20;;;;;;;10.80;56.34;102642.69;4891025;28;96881;-49
2023/05/26 03:58:28;;;;;;;5.70;2.53;;;;;;;10.78;56.36;102640.38;4894570;28;97108;-49
2023/05/26 04:00:55;;;;;;;9.60;2.80;;;;;;;10.77;56.52;102641.59;4892769;28;96738;-49
2023/05/26 04:03:21;;;;;;;11.23;2.90;;;;;;;10.76;56.58;102648.31;4893493;28;97923;-50
2023/05/26 04:05:47;;;;;;;8.20;2.80;;;;;;;10.79;56.61;102641.91;4896870;28;99829;-49
2023/05/26 04:08:12;;;;;;;5.67;2.30;;;;;;;10.82;56.65;102640.25;4894148;28;96970;-50
2023/05/26 04:10:38;;;;;;;8.67;2.80;;;;;;;10.83;56.72;102636.28;4895459;28;102032;-50
2023/05/26 04:13:03;;;;;;;8.90;2.23;;;;;;;10.85;56.59;102639.38;4902753;28;98697;-50
2023/05/26 04:15:28;;;;;;;10.83;2.20;;;;;;;10.87;56.77;102637.72;4905242;28;97182;-49
2023/05/26 04:17:54;;;;;;;9.73;3.00;;;;;;;10.88;56.65;102644.75;4892324;28;96811;-50
2023/05/26 04:20:19;;;;;;;10.10;2.90;;;;;;;10.92;56.59;102645.38;4893627;28;97057;-50
2023/05/26 04:22:45;;;;;;;13.50;2.93;;;;;;;10.94;56.75;102644.97;4894437;28;97331;-50
2023/05/26 04:25:11;;;;;;;9.70;2.60;;;;;;;10.98;56.64;102640.88;4892989;28;97151;-49
2023/05/26 04:27:37;;;;;;;8.43;3.27;;;;;;;11.02;56.45;102657.28;4893975;28;96819;-50
2023/05/26 04:30:04;;;;;;;8.70;2.33;;;;;;;11.03;56.51;102645.03;4894891;28;97931;-50
2023/05/26 04:32:30;;;;;;;12.80;2.60;;;;;;;11.00;56.47;102649.47;4892848;28;97242;-50
2023/05/26 04:34:58;;;;;;;19.13;2.47;;;;;;;11.01;56.66;102647.44;4894485;28;97588;-48
2023/05/26 04:37:24;;;;;;;8.33;2.67;;;;;;;10.99;56.58;102649.88;4894567;28;96946;-50
2023/05/26 04:39:49;;;;;;;10.90;2.83;;;;;;;11.02;56.83;102654.50;4894657;28;97249;-50
2023/05/26 04:42:15;;;;;;;8.43;2.20;;;;;;;11.04;56.72;102654.84;4892959;28;108856;-50
2023/05/26 04:44:43;;;;;;;11.70;2.77;;;;;;;11.06;56.78;102666.19;4892289;28;97522;-49
2023/05/26 04:47:08;;;;;;;10.30;2.40;;;;;;;11.08;56.88;102658.22;4894893;28;97192;-49
2023/05/26 04:49:35;;;;;;;18.77;2.97;;;;;;;11.13;56.70;102666.72;4891105;28;97442;-50
2023/05/26 04:52:01;;;;;;;10.77;3.20;;;;;;;11.12;56.79;102670.66;4893930;28;97011;-47
2023/05/26 04:54:27;;;;;;;15.50;3.20;;;;;;;11.14;56.87;102672.97;4895239;28;97277;-49
2023/05/26 04:56:53;;;;;;;10.77;2.90;;;;;;;11.14;56.71;102676.50;4893977;28;96869;-50
2023/05/26 04:59:21;;;;;;;11.40;2.67;;;;;;;11.14;56.75;102672.97;4892517;28;97160;-50
2023/05/26 05:01:47;;;;;;;13.00;2.40;;;;;;;11.16;56.97;102673.31;4890912;28;97411;-50
2023/05/26 05:04:12;;;;;;;8.50;2.63;;;;;;;11.24;56.81;102680.09;4891306;28;97139;-51
2023/05/26 05:06:38;;;;;;;11.37;2.83;;;;;;;11.31;56.83;102679.84;4896217;28;96901;-50
2023/05/26 05:09:03;;;;;;;9.20;2.40;;;;;;;11.37;56.74;102683.56;4892672;28;97041;-49
2023/05/26 05:11:28;;;;;;;10.23;3.10;;;;;;;11.42;56.72;102682.22;4895260;28;98610;-49
2023/05/26 05:13:54;;;;;;;12.33;2.67;;;;;;;11.47;56.77;102679.66;4893736;28;98687;-49
2023/05/26 05:16:20;;;;;;;10.63;2.87;;;;;;;11.49;56.57;102687.50;4895077;28;96948;-49
2023/05/26 05:18:46;;;;;;;13.63;3.13;;;;;;;11.47;56.46;102673.38;4891801;28;97048;-50
2023/05/26 05:21:11;;;;;;;11.63;3.13;;;;;;;11.53;56.42;102680.59;4892587;28;97568;-50
2023/05/26 05:23:37;;;;;;;11.63;2.20;;;;;;;11.59;56.44;102683.56;4892665;28;97970;-49
2023/05/26 05:26:03;;;;;;;15.00;2.80;;;;;;;11.63;56.35;102689.72;4893848;28;97339;-50
2023/05/26 05:28:29;;;;;;;10.40;2.80;;;;;;;11.66;56.45;102691.59;4891917;28;97748;-50
2023/05/26 05:30:55;;;;;;;10.63;2.83;;;;;;;11.73;56.51;102696.88;4892777;28;96948;-49
2023/05/26 05:33:20;;;;;;;8.63;2.60;;;;;;;11.71;56.33;102694.56;4894112;28;97228;-49
2023/05/26 05:35:46;;;;;;;14.03;3.20;;;;;;;11.77;56.37;102698.25;4892259;28;97199;-50
2023/05/26 05:38:12;;;;;;;6.50;2.40;;;;;;;11.84;56.44;102705.50;4891843;28;97304;-50
2023/05/26 05:40:38;;;;;;;15.93;3.63;;;;;;;11.87;56.62;102701.84;4890785;28;97563;-50
2023/05/26 05:43:03;;;;;;;10.13;3.17;;;;;;;11.95;56.27;102703.88;4892910;28;97057;-50
2023/05/26 05:45:28;;;;;;;15.10;3.37;;;;;;;12.00;56.20;102716.31;4891996;28;97204;-49
2023/05/26 05:47:54;;;;;;;14.40;2.77;;;;;;;12.02;56.14;102711.13;4890473;28;96775;-50
2023/05/26 05:50:19;;;;;;;12.90;3.23;;;;;;;12.10;56.31;102722.66;4892886;28;107829;-50
2023/05/26 05:52:45;;;;;;;10.83;2.50;;;;;;;12.16;56.01;102715.34;4893594;28;97155;-50
2023/05/26 05:55:11;;;;;;;10.50;2.70;;;;;;;12.30;56.02;102714.78;4893660;28;97506;-50
2023/05/26 05:57:36;;;;;;;8.50;2.47;;;;;;;12.39;55.80;102712.81;4894811;28;97359;-50
2023/05/26 06:00:05;;;;;;;8.80;2.40;;;;;;;12.44;55.74;102712.25;4892820;28;97790;-49
2023/05/26 06:02:30;;;;;;;7.67;2.43;;;;;;;12.48;55.68;102717.59;4896228;28;96722;-51
2023/05/26 06:04:56;;;;;;;10.33;2.60;;;;;;;12.53;55.68;102725.31;4892659;28;97026;-50
2023/05/26 06:07:21;;;;;;;23.83;3.40;;;;;;;12.64;55.50;102733.94;4897318;28;97420;-50
2023/05/26 06:09:46;;;;;;;13.43;3.00;;;;;;;12.76;55.32;102724.75;4893341;28;102809;-50
2023/05/26 06:12:12;;;;;;;16.73;3.60;;;;;;;12.79;55.36;102716.34;4894386;28;97091;-49
2023/05/26 06:14:38;;;;;;;10.40;2.83;;;;;;;12.90;55.17;102726.94;4892660;28;96833;-50
2023/05/26 06:17:03;;;;;;;9.33;2.20;;;;;;;12.98;55.10;102728.16;4892476;28;97126;-50
2023/05/26 06:19:29;;;;;;;12.87;3.03;;;;;;;13.02;54.86;102739.84;4895257;28;97142;-50
2023/05/26 06:21:54;;;;;;;6.90;2.53;;;;;;;13.03;55.07;102726.78;4894518;28;96768;-48
2023/05/26 06:24:19;;;;;;;20.03;3.50;;;;;;;13.10;54.68;102724.53;4895548;28;97170;-50
2023/05/26 06:26:45;;;;;;;10.10;3.13;;;;;;;13.16;54.83;102722.69;4895218;28;97576;-50
2023/05/26 06:29:10;;;;;;;12.10;3.23;;;;;;;13.22;54.95;102731.91;4894112;28;97068;-47
2023/05/26 06:31:35;;;;;;;11.87;2.73;;;;;;;13.32;54.71;102738.22;4894469;28;97000;-49
2023/05/26 06:34:01;;;;;;;6.10;2.30;;;;;;;13.43;54.66;102736.50;4893681;28;99420;-50
2023/05/26 06:36:26;;;;;;;11.97;2.87;;;;;;;13.57;54.40;102740.66;4893758;28;97031;-50
2023/05/26 06:38:51;;;;;;;7.83;2.10;;;;;;;13.64;54.46;102736.81;4894104;28;97419;-50
2023/05/26 06:41:17;;;;;;;11.70;2.83;;;;;;;13.65;54.28;102739.09;4895029;28;99203;-48
2023/05/26 06:43:42;;;;;;;5.73;2.90;;;;;;;13.68;54.12;102734.66;4894802;28;97934;-51
2023/05/26 06:46:07;;;;;;;9.70;2.13;;;;;;;13.70;54.13;102743.25;4893918;28;96878;-50
2023/05/26 06:48:33;;;;;;;11.40;3.17;;;;;;;13.69;54.01;102738.97;4895066;28;97801;-49
2023/05/26 06:50:58;;;;;;;9.10;2.73;;;;;;;13.72;54.16;102738.78;4896850;28;97572;-50
2023/05/26 06:53:24;;;;;;;20.17;3.30;;;;;;;13.72;53.89;102732.50;4894880;28;97271;-50
2023/05/26 06:55:49;;;;;;;14.23;3.10;;;;;;;13.78;53.86;102734.16;4894412;28;106016;-51
2023/05/26 06:58:14;;;;;;;19.20;3.90;;;;;;;13.79;53.82;102748.78;4892667;28;98453;-51
2023/05/26 07:00:55;;;;;;;9.20;3.20;;;;;;;13.79;53.27;102738.47;4895441;28;97212;-48
2023/05/26 07:03:20;;;;;;;12.70;2.87;;;;;;;13.91;53.72;102743.06;4894594;28;97032;-50
2023/05/26 07:05:46;;;;;;;11.50;3.70;;;;;;;14.03;53.77;102749.66;4894385;28;96973;-48
2023/05/26 07:08:11;;;;;;;6.97;2.77;;;;;;;14.14;53.53;102744.41;4893474;28;97269;-50
2023/05/26 07:10:36;;;;;;;14.03;2.57;;;;;;;14.25;53.22;102739.13;4894399;28;97418;-50
2023/05/26 07:13:02;;;;;;;12.73;2.90;;;;;;;14.33;53.16;102745.16;4893815;28;98725;-50
2023/05/26 07:15:27;;;;;;;6.70;3.00;;;;;;;14.35;53.04;102751.72;4893793;28;105354;-50
2023/05/26 07:17:52;;;;;;;14.93;3.50;;;;;;;14.34;53.09;102752.97;4892180;28;111489;-49
2023/05/26 07:20:18;;;;;;;10.07;3.13;;;;;;;14.33;52.88;102756.97;4892605;28;97483;-51
2023/05/26 07:22:43;;;;;;;13.60;3.10;;;;;;;14.41;52.98;102762.94;4894643;28;97256;-50
2023/05/26 07:25:09;;;;;;;11.10;2.67;;;;;;;14.49;52.91;102773.22;4895022;28;98421;-50
2023/05/26 07:27:34;;;;;;;10.80;2.30;;;;;;;14.54;52.66;102766.28;4893310;28;97118;-50
2023/05/26 07:29:59;;;;;;;8.23;2.60;;;;;;;14.60;52.42;102765.19;4895773;28;96989;-50
2023/05/26 07:32:25;;;;;;;17.57;3.20;;;;;;;14.59;52.26;102762.88;4896829;28;97280;-48
2023/05/26 07:34:50;;;;;;;9.77;3.03;;;;;;;14.67;52.32;102770.38;4895291;28;97553;-50
2023/05/26 07:37:15;;;;;;;14.10;2.90;;;;;;;14.78;52.13;102764.31;4896520;28;98352;-47
2023/05/26 07:39:41;;;;;;;12.40;3.17;;;;;;;14.83;51.64;102761.66;4896524;28;97741;-50
2023/05/26 07:42:06;;;;;;;12.03;3.20;;;;;;;14.78;51.68;102759.56;4899194;28;97117;-49
2023/05/26 07:44:31;;;;;;;11.30;2.83;;;;;;;14.84;51.76;102759.66;4895472;28;98591;-51
2023/05/26 07:46:57;;;;;;;8.50;2.67;;;;;;;14.87;51.07;102765.03;4897523;28;105761;-49
2023/05/26 07:49:22;;;;;;;12.90;3.60;;;;;;;14.89;51.61;102753.47;4895272;28;97289;-50
2023/05/26 07:51:47;;;;;;;14.83;3.23;;;;;;;14.98;51.39;102756.19;4896116;28;97016;-50
2023/05/26 07:54:13;;;;;;;10.60;2.73;;;;;;;15.10;51.04;102748.84;4893188;28;97764;-50
2023/05/26 07:56:38;;;;;;;15.83;3.60;;;;;;;15.18;51.12;102761.91;4904793;28;97041;-49
2023/05/26 07:59:04;;;;;;;11.93;2.80;;;;;;;15.29;51.17;102751.03;4894383;28;97049;-50
2023/05/26 08:01:29;;;;;;;11.20;3.33;;;;;;;15.32;50.78;102747.31;4892748;28;101904;-51
2023/05/26 08:03:54;;;;;;;12.57;3.03;;;;;;;15.46;50.78;102748.63;4890913;28;97441;-48
2023/05/26 08:06:20;;;;;;;10.67;3.00;;;;;;;15.56;50.62;102752.84;4891776;28;97047;-51
2023/05/26 08:08:45;;;;;;;9.10;2.90;;;;;;;15.63;50.76;102750.47;4893663;28;97550;-50
2023/05/26 08:11:10;;;;;;;13.27;2.97;;;;;;;15.70;50.26;102747.31;4893541;28;96718;-48
2023/05/26 08:13:36;;;;;;;9.33;3.20;;;;;;;15.76;50.11;102744.66;4893489;28;98626;-51
2023/05/26 08:16:01;;;;;;;8.07;2.40;;;;;;;15.85;49.91;102744.56;4891922;28;109834;-50
2023/05/26 08:18:27;;;;;;;7.00;2.60;;;;;;;15.96;50.02;102746.75;4894994;28;96865;-49
2023/05/26 08:20:53;;;;;;;7.77;2.57;;;;;;;15.95;49.54;102743.22;4892866;28;96911;-50
2023/05/26 08:23:19;;;;;;;6.60;2.63;;;;;;;15.91;49.24;102753.75;4893103;28;97209;-51
2023/05/26 08:25:44;;;;;;;8.93;2.93;;;;;;;15.96;49.55;102739.19;4893651;28;97691;-51
2023/05/26 08:28:10;;;;;;;8.17;2.23;;;;;;;16.07;49.36;102742.16;4890639;28;96812;-48
2023/05/26 08:30:35;;;;;;;11.23;2.93;;;;;;;16.09;48.90;102741.69;4895847;28;97415;-48
2023/05/26 08:33:00;;;;;;;6.93;2.07;;;;;;;16.11;49.16;102747.50;4893274;28;97299;-49
2023/05/26 08:35:28;;;;;;;5.30;2.30;;;;;;;16.25;49.23;102749.53;4893336;28;97057;-50
2023/05/26 08:37:53;;;;;;;9.43;2.93;;;;;;;16.42;48.95;102750.53;4891448;28;96803;-49
2023/05/26 08:40:18;;;;;;;8.67;2.30;;;;;;;16.56;48.75;102749.00;4891984;28;97029;-51
2023/05/26 08:42:48;;;;;;;10.97;2.27;;;;;;;16.69;48.49;102749.44;4891157;28;97214;-50
2023/05/26 08:45:14;;;;;;;6.00;2.47;;;;;;;16.75;48.61;102751.06;4894484;28;96723;-50
2023/05/26 08:47:42;;;;;;;8.40;2.97;;;;;;;16.89;48.60;102741.88;4893094;28;97486;-48
2023/05/26 08:50:08;;;;;;;7.20;2.23;;;;;;;16.94;48.14;102749.56;4893303;28;96720;-50
2023/05/26 08:52:36;;;;;;;8.77;3.13;;;;;;;16.94;48.06;102744.00;4895595;28;96804;-50
2023/05/26 08:55:01;;;;;;;5.50;2.40;;;;;;;17.04;47.73;102750.94;4894292;28;97615;-50
2023/05/26 08:57:29;;;;;;;9.60;2.73;;;;;;;17.12;47.67;102754.06;4893245;28;97026;-49
2023/05/26 08:59:55;;;;;;;7.23;2.37;;;;;;;17.15;47.92;102751.06;4893230;28;96820;-49
2023/05/26 09:02:21;;;;;;;10.53;3.10;;;;;;;17.21;47.55;102753.94;4893126;28;97152;-50
2023/05/26 09:04:46;;;;;;;3.43;2.20;;;;;;;17.26;47.39;102756.00;4892490;28;96998;-50
2023/05/26 09:07:12;;;;;;;6.50;2.30;;;;;;;17.38;47.12;102754.88;4892048;28;97415;-49
2023/05/26 09:09:37;;;;;;;4.57;2.10;;;;;;;17.51;47.12;102741.41;4890598;28;97091;-50
2023/05/26 09:12:09;;;;;;;10.87;2.50;;;;;;;17.70;46.44;102739.81;4893919;28;96945;-51
2023/05/26 09:14:36;;;;;;;6.27;1.90;;;;;;;17.81;46.63;102736.38;4890898;28;96799;-48
2023/05/26 09:17:02;;;;;;;7.80;2.43;;;;;;;17.89;46.33;102729.88;4888415;28;96835;-50
2023/05/26 09:19:28;;;;;;;9.33;3.10;;;;;;;18.01;46.29;102730.72;4891312;28;96880;-50
2023/05/26 09:21:54;;;;;;;7.20;2.13;;;;;;;18.17;46.30;102732.13;4893117;28;97245;-49
2023/05/26 09:24:23;;;;;;;5.30;2.43;;;;;;;18.29;45.60;102733.72;4893204;28;97493;-50
2023/05/26 09:26:49;;;;;;;9.57;2.40;;;;;;;18.38;45.41;102739.13;4893307;28;97220;-49
2023/05/26 09:29:15;;;;;;;7.20;2.60;;;;;;;18.52;45.26;102736.19;4896069;28;98099;-50
2023/05/26 09:31:43;;;;;;;4.70;1.90;;;;;;;18.66;45.15;102734.50;4891934;28;97234;-50
2023/05/26 09:34:10;;;;;;;7.10;2.30;;;;;;;18.80;44.99;102730.78;4893256;28;97138;-49
2023/05/26 09:36:36;;;;;;;5.80;2.37;;;;;;;18.89;44.61;102724.25;4893744;28;97256;-50
2023/05/26 09:39:03;;;;;;;7.80;1.87;;;;;;;19.04;44.88;102722.78;4894085;28;97109;-49
2023/05/26 09:41:40;;;;;;;10.30;2.30;;;;;;;19.07;42.61;102721.75;4896013;28;97068;-50
2023/05/26 09:44:13;;;;;;;6.00;2.33;;;;;;;19.07;43.95;102718.19;4893838;28;96909;-48
2023/05/26 09:46:40;;;;;;;8.40;2.70;;;;;;;19.17;44.57;102727.91;4893006;28;96804;-49
2023/05/26 09:49:18;;;;;;;9.97;3.03;;;;;;;19.14;43.22;102726.09;4894232;28;97225;-49
2023/05/26 09:51:46;;;;;;;8.67;2.77;;;;;;;19.10;44.39;102729.16;4892731;28;98695;-50
2023/05/26 09:54:12;;;;;;;9.50;2.47;;;;;;;19.19;44.20;102722.56;4895356;28;96711;-49
2023/05/26 09:57:00;;;;;;;6.97;2.70;;;;;;;19.28;42.87;102734.28;4894274;28;97112;-49
2023/05/26 09:59:36;;;;;;;7.00;2.67;;;;;;;19.29;43.69;102729.44;4897487;28;97291;-50
2023/05/26 10:02:11;;;;;;;10.43;2.33;;;;;;;19.37;44.13;102727.75;4897329;28;97373;-49
2023/05/26 10:04:37;;;;;;;8.33;2.50;;;;;;;19.51;43.90;102732.31;4894358;28;98409;-49
2023/05/26 10:07:03;;;;;;;8.20;2.57;;;;;;;19.57;43.52;102721.19;4896337;28;96782;-51
2023/05/26 10:09:30;;;;;;;9.67;3.00;;;;;;;19.56;43.80;102728.03;4897100;28;97119;-50
2023/05/26 10:11:58;;;;;;;9.83;2.97;;;;;;;19.67;43.51;102730.84;4891892;28;97419;-50
2023/05/26 10:14:23;;;;;;;7.50;2.20;;;;;;;19.73;43.55;102737.19;4895302;28;97096;-50
2023/05/26 10:16:50;;;;;;;6.30;2.60;;;;;;;19.73;43.25;102737.19;4895556;28;96828;-50
2023/05/26 10:19:16;;;;;;;5.47;2.00;;;;;;;19.82;43.56;102737.72;4895328;28;96927;-49
2023/05/26 10:21:47;;;;;;;4.70;2.07;;;;;;;19.95;42.60;102737.22;4897557;28;97676;-50
2023/05/26 10:24:49;;;;;;;2.67;1.60;;;;;;;20.00;41.55;102728.06;4894320;28;98400;-49
2023/05/26 10:27:25;;;;;;;3.10;1.80;;;;;;;20.08;41.68;102729.06;4872726;28;97160;-49
2023/05/26 10:30:08;;;;;;;6.10;2.53;;;;;;;20.21;41.86;102725.78;4894433;28;97007;-50
2023/05/26 10:32:52;;;;;;;3.90;2.30;;;;;;;20.35;41.59;102719.94;4894942;28;97402;-51
2023/05/26 10:35:22;;;;;;;4.33;2.20;;;;;;;20.45;42.56;102720.41;4893653;28;97672;-50
2023/05/26 10:38:12;;;;;;;6.60;1.90;;;;;;;20.55;40.85;102718.88;4896724;28;97602;-52
2023/05/26 10:40:43;;;;;;;5.73;2.23;;;;;;;20.56;41.57;102729.56;4895990;28;97073;-50
2023/05/26 10:43:27;;;;;;;6.77;2.80;;;;;;;20.52;40.87;102717.88;4894383;28;97410;-51
2023/05/26 10:46:01;;;;;;;7.50;2.03;;;;;;;20.57;41.19;102710.75;4894795;28;97223;-50
2023/05/26 10:48:35;;;;;;;8.83;2.40;;;;;;;20.46;40.64;102714.31;4895612;28;97242;-50
2023/05/26 10:51:09;;;;;;;7.10;2.47;;;;;;;20.32;41.28;102720.19;4895920;28;96889;-49
2023/05/26 10:53:41;;;;;;;13.60;3.30;;;;;;;20.31;41.43;102711.06;4908996;28;99461;-51
2023/05/26 10:56:12;;;;;;;5.23;2.30;;;;;;;20.43;41.68;102711.78;4894066;28;98381;-50
2023/05/26 10:58:51;;;;;;;6.43;2.13;;;;;;;20.51;39.97;102726.78;4891418;28;97696;-50
2023/05/26 11:01:26;;;;;;;3.93;1.70;;;;;;;20.62;38.69;102724.69;4896441;28;96996;-50
2023/05/26 11:04:09;;;;;;;8.23;2.77;;;;;;;20.55;39.27;102719.63;4893842;28;97380;-49
2023/05/26 11:06:56;;;;;;;5.20;1.80;;;;;;;20.55;39.72;102725.22;4893931;28;97538;-50
2023/05/26 11:09:23;;;;;;;4.73;1.73;;;;;;;20.59;41.44;102731.34;4896376;28;96828;-50
2023/05/26 11:11:59;;;;;;;3.67;1.93;;;;;;;20.74;40.32;102726.19;4894166;28;97240;-50
2023/05/26 11:14:27;;;;;;;4.90;2.30;;;;;;;20.81;40.97;102722.88;4893548;28;97563;-50
2023/05/26 11:16:58;;;;;;;4.50;1.87;;;;;;;20.89;40.54;102711.91;4894946;28;96804;-50
2023/05/26 11:19:34;;;;;;;7.23;1.83;;;;;;;20.92;40.04;102708.81;4893443;28;97042;-50
2023/05/26 11:22:03;;;;;;;5.20;2.23;;;;;;;20.86;40.80;102705.28;4894099;28;96955;-51
2023/05/26 11:24:32;;;;;;;5.30;2.13;;;;;;;20.86;40.74;102704.50;4894221;28;97746;-51